Create Tblcommutelog Verified Points Advance Search
| # | Trip ID | Id Commuter | Trip Date | Trip Num | Current Lat | Current Lng | Delta Distance | Current Time | Activity | Activity Confidence | Current Speed | |
|---|---|---|---|---|---|---|---|---|---|---|---|---|
| 68981 | 251107_786113_16505268_0621 | 786113 | (not set) | (not set) | 38.791813662997 | -77.178834948734 | 21.0117 | 2025-11-07 06:42:03 | in_vehicle | 100 | 12.597566318274 | |
| 68982 | 251107_788423_16505268_0623 | 788423 | (not set) | (not set) | 38.791788683333 | -77.1788035 | 20.8135 | 2025-11-07 06:42:03 | in_vehicle | 100 | 12.534980822016 | |
| 68983 | 251107_788077_16505268_0632 | 788077 | (not set) | (not set) | 38.791713255659 | -77.178576031775 | 11.9767 | 2025-11-07 06:42:04 | unknown | 100 | 12.74061888115 | |
| 68984 | 251107_788956_16505268_0629 | 788956 | (not set) | (not set) | 38.955541854356 | -77.429697342629 | 4.3779 | 2025-11-07 06:42:05 | in_vehicle | 100 | -0.44703925898772 | |
| 68985 | 251107_720669_16491788_0635 | 720669 | (not set) | (not set) | 38.770937909239 | -77.183916682664 | 1.1814 | 2025-11-07 06:42:06 | in_vehicle | 100 | 7.1481577512137 | |
| 68986 | 251107_720669_16491788_0635 | 720669 | (not set) | (not set) | 38.770937909239 | -77.183916682664 | 1.1814 | 2025-11-07 06:42:06 | in_vehicle | 100 | 7.1481577512137 | |
| 68987 | 251107_784692_16513841_0631 | 784692 | (not set) | (not set) | 38.791586084894 | -77.178253914372 | 13.2594 | 2025-11-07 06:42:05 | in_vehicle | 100 | 12.642270244173 | |
| 68988 | 251107_788475_16428771_0634 | 788475 | (not set) | (not set) | 38.861981776483 | -76.996634396858 | 3.003 | 2025-11-07 06:42:08 | in_vehicle | 100 | 4.2155802122542 | |
| 68989 | 251107_787968_16505268_0621 | 787968 | (not set) | (not set) | 38.791087255414 | -77.176713455271 | 21.0818 | 2025-11-07 06:42:10 | in_vehicle | 100 | 12.923904977335 | |
| 68990 | 251107_789839_16472497_0617 | 789839 | (not set) | (not set) | 38.647889834998 | -77.284474907703 | 17.7797 | 2025-11-07 06:42:10 | in_vehicle | 100 | 13.625756613946 | |
| 68991 | 251107_789839_16472497_0617 | 789839 | (not set) | (not set) | 38.647889834998 | -77.284474907703 | 17.7797 | 2025-11-07 06:42:10 | in_vehicle | 100 | 13.625756613946 | |
| 68992 | 251107_787797_16493029_0632 | 787797 | (not set) | (not set) | 39.120879315767 | -77.162816060865 | 8.288 | 2025-11-07 06:42:10 | unknown | 100 | 4.2379321752036 | |
| 68993 | 251107_788116_16505268_0628 | 788116 | (not set) | (not set) | 38.952828031505 | -77.429632381987 | 8.2286 | 2025-11-07 06:42:11 | unknown | 100 | 13.978917628546 | |
| 68994 | 251107_788116_16505268_0628 | 788116 | (not set) | (not set) | 38.952828031505 | -77.429632381987 | 8.2286 | 2025-11-07 06:42:11 | unknown | 100 | 13.978917628546 | |
| 68995 | 251107_786880_16464305_0640 | 786880 | (not set) | (not set) | 38.8793217 | -77.1313762 | 2.0989 | 2025-11-07 06:42:12 | in_vehicle | 100 | 12.38745786655 | |
| 68996 | 251107_788077_16505268_0632 | 788077 | (not set) | (not set) | 38.79080511401 | -77.175822294428 | 12.138 | 2025-11-07 06:42:13 | unknown | 100 | 13.241302851216 | |
| 68997 | 251107_789839_16472497_0617 | 789839 | (not set) | (not set) | 38.648882086042 | -77.283882946998 | 17.8553 | 2025-11-07 06:42:14 | in_vehicle | 100 | 13.563171117688 | |
| 68998 | 251107_789839_16472497_0617 | 789839 | (not set) | (not set) | 38.648882086042 | -77.283882946998 | 17.8553 | 2025-11-07 06:42:14 | in_vehicle | 100 | 13.563171117688 | |
| 68999 | 251107_783292_16499526_0632 | 783292 | (not set) | (not set) | 38.881935357943 | -77.112198215723 | 5.1738 | 2025-11-07 06:42:14 | still | 33 | -0.44703925898772 | |
| 69000 | 251107_783292_16499526_0632 | 783292 | (not set) | (not set) | 38.881935357943 | -77.112198215723 | 5.1738 | 2025-11-07 06:42:14 | still | 33 | -0.44703925898772 |